Řízení letového provozu České republiky
Letiste: LKPD Aktualizace: 28.06.2017 05:06:13  UTC
 METAR LKPD 28.06. 05:00 ...
METAR LKPD 280500Z VRB01KT 0300 R27/0300N FG VV001 16/16 Q1003 NOSIG=
 TAF LKPD 27.06. 23:00 ...
TAF LKPD 272300Z 2800/2900 07004KT 3000 NSC      TEMPO 2800/2805 0600 FG      PROB40 TEMPO 2800/2805 0300 FG      BECMG 2806/2808 CAVOK      TEMPO 2810/2818 28020G35KT 3000 TSRA SCT025CB=